createdAt,value
2022-08-15T00:00:06.340Z,79.07
2022-08-15T00:04:43.081Z,79.15
2022-08-15T00:09:02.290Z,79.06
2022-08-15T00:13:16.867Z,79.49
2022-08-15T00:17:48.380Z,79.77
2022-08-15T00:21:56.777Z,79.95
2022-08-15T00:26:28.375Z,79.98
2022-08-15T00:30:50.749Z,80.02
2022-08-15T00:35:02.965Z,80.46
2022-08-15T00:39:17.748Z,80.70
2022-08-15T00:43:30.818Z,80.81
2022-08-15T00:47:40.260Z,81.09
2022-08-15T00:51:54.731Z,81.54
2022-08-15T00:56:03.578Z,81.39
2022-08-15T01:00:32.875Z,81.46
2022-08-15T01:04:42.935Z,81.70
2022-08-15T01:08:52.814Z,81.73
2022-08-15T01:13:00.210Z,81.94
2022-08-15T01:17:10.507Z,81.90
2022-08-15T01:21:27.646Z,81.89
2022-08-15T01:26:37.910Z,81.74
2022-08-15T01:30:39.297Z,81.62
2022-08-15T01:34:41.086Z,81.39
2022-08-15T01:39:05.073Z,81.32
2022-08-15T01:43:17.198Z,81.06
2022-08-15T01:47:27.347Z,81.16
2022-08-15T01:51:34.889Z,81.33
2022-08-15T01:55:53.273Z,81.48
2022-08-15T02:00:03.318Z,81.64
2022-08-15T02:04:29.523Z,81.38
2022-08-15T02:08:38.862Z,81.35
2022-08-15T02:13:12.211Z,81.35
2022-08-15T02:17:15.388Z,81.49
2022-08-15T02:21:37.262Z,81.82
2022-08-15T02:25:45.487Z,82.11
2022-08-15T02:29:54.012Z,82.34
2022-08-15T02:34:10.890Z,82.57
2022-08-15T02:38:19.678Z,82.50
2022-08-15T02:42:27.733Z,82.54
2022-08-15T02:46:38.458Z,82.66
2022-08-15T02:51:10.041Z,82.68
2022-08-15T02:55:21.921Z,82.99
2022-08-15T02:59:32.464Z,83.36
2022-08-15T03:03:50.704Z,83.53
2022-08-15T03:07:58.795Z,83.56
2022-08-15T03:12:21.754Z,83.61
2022-08-15T03:16:35.511Z,83.55
2022-08-15T03:20:46.392Z,83.52
2022-08-15T03:24:58.206Z,83.50
2022-08-15T03:29:08.318Z,83.54
2022-08-15T03:33:55.035Z,83.78
2022-08-15T03:37:59.497Z,83.88
2022-08-15T03:42:18.854Z,83.84
2022-08-15T03:46:27.654Z,83.89
2022-08-15T03:50:42.824Z,83.72
2022-08-15T03:54:51.203Z,83.59
2022-08-15T03:59:06.027Z,83.64
2022-08-15T04:03:23.287Z,83.75
2022-08-15T04:07:40.634Z,83.83
2022-08-15T04:11:51.450Z,83.84
2022-08-15T04:17:00.641Z,83.81
2022-08-15T04:20:32.506Z,83.79
2022-08-15T04:24:40.495Z,83.78
2022-08-15T04:28:55.393Z,83.62
2022-08-15T04:33:18.698Z,83.58
2022-08-15T04:37:33.407Z,83.66
2022-08-15T04:41:50.372Z,83.69
2022-08-15T04:45:58.275Z,83.56
2022-08-15T04:50:06.182Z,83.59
2022-08-15T04:54:15.371Z,83.62
2022-08-15T04:58:42.936Z,83.79
2022-08-15T05:03:04.507Z,84.04
2022-08-15T05:07:17.307Z,84.23
2022-08-15T05:11:25.897Z,84.27
2022-08-15T05:15:54.788Z,84.28
2022-08-15T05:20:02.565Z,84.33
2022-08-15T05:24:12.082Z,84.30
2022-08-15T05:28:29.416Z,84.30
2022-08-15T05:32:39.392Z,84.22
2022-08-15T05:36:52.293Z,84.07
2022-08-15T05:41:20.433Z,83.93
2022-08-15T05:45:43.122Z,83.85
2022-08-15T05:49:58.073Z,83.85
2022-08-15T05:54:19.960Z,83.65
2022-08-15T05:58:45.695Z,83.42
2022-08-15T06:02:59.978Z,83.71
2022-08-15T06:07:12.595Z,83.42
2022-08-15T06:11:28.902Z,83.19
2022-08-15T06:15:55.547Z,83.00
2022-08-15T06:20:30.542Z,82.77
2022-08-15T06:24:44.661Z,82.64
2022-08-15T06:29:08.747Z,82.41
2022-08-15T06:33:56.626Z,82.30
2022-08-15T06:38:32.312Z,81.96
2022-08-15T06:42:36.743Z,81.46
2022-08-15T06:46:51.739Z,81.32
2022-08-15T06:51:02.888Z,81.25
2022-08-15T06:55:11.987Z,80.82
2022-08-15T06:59:37.345Z,80.38
2022-08-15T07:03:54.666Z,80.01
2022-08-15T07:08:07.954Z,80.03
2022-08-15T07:12:35.804Z,79.74
2022-08-15T07:16:49.782Z,78.97
2022-08-15T07:21:10.546Z,78.43
2022-08-15T07:25:21.908Z,78.52
2022-08-15T07:29:55.719Z,78.12
2022-08-15T07:34:20.400Z,77.43
2022-08-15T07:38:35.173Z,77.06
2022-08-15T07:42:59.549Z,76.38
2022-08-15T07:47:21.950Z,76.15
2022-08-15T07:51:33.938Z,75.53
2022-08-15T08:00:38.701Z,74.77
2022-08-15T08:04:50.536Z,74.44
2022-08-15T08:09:05.702Z,74.32
2022-08-15T08:13:34.120Z,73.28
2022-08-15T08:18:39.512Z,73.66
2022-08-15T08:22:25.066Z,73.28
2022-08-15T08:26:40.060Z,73.10
2022-08-15T08:30:56.446Z,72.85
2022-08-15T08:35:12.647Z,72.51
2022-08-15T08:39:36.032Z,72.20
2022-08-15T08:43:55.143Z,72.09
2022-08-15T08:48:20.812Z,71.34
2022-08-15T08:52:41.346Z,71.08
2022-08-15T08:56:51.828Z,71.06
2022-08-15T09:01:10.888Z,70.58
2022-08-15T09:05:46.891Z,69.71
2022-08-15T09:09:58.055Z,69.50
2022-08-15T09:14:31.570Z,69.16
2022-08-15T09:18:45.372Z,68.97
2022-08-15T09:22:58.415Z,67.72
2022-08-15T09:27:14.747Z,68.07
2022-08-15T09:31:24.970Z,67.18
2022-08-15T09:35:52.217Z,67.08
2022-08-15T09:40:57.548Z,66.45
2022-08-15T09:45:12.921Z,65.78
2022-08-15T09:49:36.694Z,64.84
2022-08-15T09:54:01.856Z,64.71
2022-08-15T09:58:21.525Z,64.42
2022-08-15T10:02:37.087Z,64.37
2022-08-15T10:07:21.216Z,64.19
2022-08-15T10:11:34.223Z,62.57
2022-08-15T10:15:44.971Z,62.34
2022-08-15T10:20:18.324Z,61.27
2022-08-15T10:24:31.677Z,60.95
2022-08-15T10:28:53.574Z,60.17
2022-08-15T10:33:11.380Z,60.63
2022-08-15T10:37:26.818Z,59.75
2022-08-15T10:41:40.546Z,58.36
2022-08-15T10:45:56.111Z,59.09
2022-08-15T10:50:23.464Z,58.77
2022-08-15T10:54:41.872Z,57.66
2022-08-15T10:58:50.746Z,57.81
2022-08-15T11:03:10.889Z,57.35
2022-08-15T11:07:29.732Z,57.61
2022-08-15T11:11:43.409Z,57.92
2022-08-15T11:15:57.059Z,57.09
2022-08-15T11:20:20.787Z,56.08
2022-08-15T11:24:35.485Z,55.23
2022-08-15T11:28:55.885Z,55.35
2022-08-15T11:33:24.639Z,55.85
2022-08-15T11:37:41.372Z,55.07
2022-08-15T11:41:54.525Z,54.96
2022-08-15T11:46:30.200Z,55.31
2022-08-15T11:50:34.075Z,55.42
2022-08-15T11:54:45.980Z,56.05
2022-08-15T11:59:03.413Z,56.20
2022-08-15T12:04:41.381Z,56.41
2022-08-15T12:07:51.964Z,56.44
2022-08-15T12:12:00.093Z,56.57
2022-08-15T12:16:26.627Z,56.55
2022-08-15T12:20:47.394Z,56.45
2022-08-15T12:24:56.040Z,56.58
2022-08-15T12:29:04.125Z,56.66
2022-08-15T12:33:14.755Z,56.56
2022-08-15T12:37:50.565Z,56.11
2022-08-15T12:42:49.106Z,56.44
2022-08-15T12:46:23.528Z,57.49
2022-08-15T12:50:33.983Z,57.97
2022-08-15T12:54:46.059Z,58.49
2022-08-15T12:58:53.981Z,59.25
2022-08-15T13:03:19.107Z,59.78
2022-08-15T13:07:30.660Z,60.35
2022-08-15T13:11:40.749Z,61.03
2022-08-15T13:15:49.437Z,61.66
2022-08-15T13:20:16.995Z,62.13
2022-08-15T13:24:27.352Z,62.73
2022-08-15T13:28:35.887Z,63.04
2022-08-15T13:32:44.078Z,63.25
2022-08-15T13:36:54.334Z,63.41
2022-08-15T13:41:06.220Z,63.69
2022-08-15T13:45:58.146Z,64.09
2022-08-15T13:49:46.554Z,65.04
2022-08-15T13:54:31.227Z,65.04
2022-08-15T13:58:30.817Z,65.17
2022-08-15T14:02:39.735Z,64.87
2022-08-15T14:06:55.998Z,64.38
2022-08-15T14:11:12.864Z,64.11
2022-08-15T14:15:27.687Z,63.56
2022-08-15T14:20:02.459Z,63.03
2022-08-15T14:24:21.063Z,64.11
2022-08-15T14:33:07.783Z,62.35
2022-08-15T14:41:49.212Z,60.56
2022-08-15T14:46:34.793Z,59.73
2022-08-15T14:50:53.654Z,58.76
2022-08-15T14:55:02.100Z,58.34
2022-08-15T14:59:10.812Z,57.34
2022-08-15T15:03:19.335Z,56.20
2022-08-15T15:07:53.858Z,55.90
2022-08-15T15:11:55.961Z,54.89
2022-08-15T15:16:41.741Z,54.79
2022-08-15T15:20:46.477Z,54.98
2022-08-15T15:24:55.942Z,54.54
2022-08-15T15:29:03.461Z,53.86
2022-08-15T15:33:11.893Z,53.05
2022-08-15T15:37:19.566Z,52.09
2022-08-15T15:41:26.991Z,51.39
2022-08-15T15:45:37.875Z,51.09
2022-08-15T15:49:48.079Z,48.82
2022-08-15T15:53:58.268Z,49.14
2022-08-15T15:59:02.005Z,49.29
2022-08-15T16:02:43.795Z,49.03
2022-08-15T16:07:03.369Z,48.76
2022-08-15T16:11:42.467Z,49.81
2022-08-15T16:15:58.801Z,50.44
2022-08-15T16:20:28.442Z,50.79
2022-08-15T16:24:44.830Z,50.91
2022-08-15T16:29:00.519Z,50.33
2022-08-15T16:33:13.488Z,49.92
2022-08-15T16:37:27.866Z,49.68
2022-08-15T16:41:55.341Z,49.20
2022-08-15T16:46:13.617Z,49.96
2022-08-15T16:50:29.089Z,50.36
2022-08-15T16:54:51.166Z,50.64
2022-08-15T16:59:06.511Z,51.03
2022-08-15T17:03:55.861Z,51.07
2022-08-15T17:08:13.338Z,50.85
2022-08-15T17:12:28.495Z,50.74
2022-08-15T17:16:42.760Z,50.81
2022-08-15T17:21:02.169Z,51.27
2022-08-15T17:25:20.688Z,51.92
2022-08-15T17:29:42.552Z,52.56
2022-08-15T17:34:00.476Z,54.07
2022-08-15T17:38:08.623Z,54.17
2022-08-15T17:42:19.562Z,54.45
2022-08-15T17:46:31.954Z,54.56
2022-08-15T17:50:59.364Z,54.74
2022-08-15T17:55:12.939Z,55.54
2022-08-15T17:59:38.639Z,57.15
2022-08-15T18:03:47.109Z,58.33
2022-08-15T18:07:59.406Z,58.32
2022-08-15T18:12:16.551Z,58.85
2022-08-15T18:16:28.119Z,59.01
2022-08-15T18:20:45.242Z,60.70
2022-08-15T18:25:00.778Z,61.51
2022-08-15T18:29:17.934Z,61.19
2022-08-15T18:34:05.486Z,60.84
2022-08-15T18:38:18.114Z,60.79
2022-08-15T18:42:32.691Z,60.47
2022-08-15T18:46:59.623Z,60.09
2022-08-15T18:51:16.403Z,59.94
2022-08-15T18:55:33.672Z,59.83
2022-08-15T18:59:54.043Z,59.62
2022-08-15T19:04:03.897Z,59.63
2022-08-15T19:08:38.770Z,59.98
2022-08-15T19:12:58.675Z,60.30
2022-08-15T19:17:17.534Z,60.45
2022-08-15T19:21:26.341Z,60.77
2022-08-15T19:25:45.700Z,61.11
2022-08-15T19:30:08.818Z,61.50
2022-08-15T19:34:36.325Z,61.74
2022-08-15T19:38:55.891Z,62.08
2022-08-15T19:43:13.617Z,62.26
2022-08-15T19:47:27.196Z,62.56
2022-08-15T19:51:45.222Z,62.82
2022-08-15T19:56:01.890Z,63.21
2022-08-15T20:00:17.181Z,63.42
2022-08-15T20:04:47.942Z,63.63
2022-08-15T20:09:03.794Z,63.65
2022-08-15T20:13:23.334Z,63.82
2022-08-15T20:17:57.911Z,64.05
2022-08-15T20:22:34.415Z,64.11
2022-08-15T20:26:51.330Z,64.23
2022-08-15T20:31:07.842Z,64.38
2022-08-15T20:35:19.913Z,64.52
2022-08-15T20:39:29.560Z,64.69
2022-08-15T20:43:45.291Z,64.98
2022-08-15T20:48:44.579Z,65.31
2022-08-15T20:52:39.151Z,65.33
2022-08-15T20:56:49.975Z,65.55
2022-08-15T21:01:18.441Z,65.66
2022-08-15T21:05:42.571Z,66.04
2022-08-15T21:10:03.241Z,66.17
2022-08-15T21:15:07.487Z,66.33
2022-08-15T21:18:51.427Z,67.25
2022-08-15T21:23:01.313Z,67.65
2022-08-15T21:27:15.952Z,67.99
2022-08-15T21:31:38.511Z,68.35
2022-08-15T21:35:46.956Z,68.65
2022-08-15T21:39:58.738Z,68.84
2022-08-15T21:44:14.531Z,69.21
2022-08-15T21:48:48.781Z,69.23
2022-08-15T21:53:02.633Z,69.47
2022-08-15T21:57:14.241Z,69.64
2022-08-15T22:01:42.431Z,70.25
2022-08-15T22:05:55.238Z,70.53
2022-08-15T22:10:19.803Z,70.78
2022-08-15T22:14:29.841Z,71.09
2022-08-15T22:18:37.854Z,71.33
2022-08-15T22:23:07.566Z,71.39
2022-08-15T22:27:15.754Z,71.35
2022-08-15T22:31:43.557Z,71.51
2022-08-15T22:35:52.833Z,71.71
2022-08-15T22:40:10.100Z,71.53
2022-08-15T22:44:29.102Z,71.53
2022-08-15T22:48:37.904Z,71.52
2022-08-15T22:52:47.306Z,71.75
2022-08-15T22:57:00.801Z,71.94
2022-08-15T23:01:10.970Z,71.93
2022-08-15T23:05:23.471Z,72.57
2022-08-15T23:09:35.401Z,72.57
2022-08-15T23:13:59.315Z,73.14
2022-08-15T23:18:18.995Z,73.50
2022-08-15T23:22:32.539Z,73.70
2022-08-15T23:26:58.606Z,73.86
2022-08-15T23:31:10.218Z,73.66
2022-08-15T23:35:20.880Z,73.51
2022-08-15T23:39:36.607Z,73.50
2022-08-15T23:43:55.724Z,73.40
2022-08-15T23:48:04.131Z,73.44
2022-08-15T23:52:17.666Z,73.46
2022-08-15T23:56:32.354Z,73.33
